createdAt,value
2018-05-21T00:00:46.937Z,98.60
2018-05-21T00:03:15.177Z,99.30
2018-05-21T00:05:43.017Z,99.30
2018-05-21T00:08:10.856Z,99.20
2018-05-21T00:10:38.677Z,99.20
2018-05-21T00:13:06.857Z,99.10
2018-05-21T00:15:34.718Z,98.90
2018-05-21T00:18:03.046Z,98.80
2018-05-21T00:20:31.500Z,98.50
2018-05-21T00:22:59.277Z,98.50
2018-05-21T00:25:27.537Z,98.30
2018-05-21T00:27:55.737Z,98.60
2018-05-21T00:30:23.897Z,98.80
2018-05-21T00:32:52.056Z,98.80
2018-05-21T00:35:19.896Z,98.70
2018-05-21T00:37:47.816Z,98.70
2018-05-21T00:40:15.676Z,98.90
2018-05-21T00:42:43.503Z,98.80
2018-05-21T00:45:11.297Z,98.70
2018-05-21T00:47:39.136Z,98.70
2018-05-21T00:50:07.256Z,98.80
2018-05-21T00:52:35.416Z,99.00
2018-05-21T00:55:15.017Z,98.90
2018-05-21T00:57:42.936Z,99.00
2018-05-21T01:00:10.715Z,98.90
2018-05-21T01:02:39.003Z,98.80
2018-05-21T01:05:06.919Z,98.60
2018-05-21T01:07:34.799Z,98.70
2018-05-21T01:10:02.723Z,98.50
2018-05-21T01:12:30.619Z,98.60
2018-05-21T01:14:58.839Z,98.50
2018-05-21T01:17:26.738Z,98.50
2018-05-21T01:19:54.778Z,98.60
2018-05-21T01:22:24.240Z,98.60
2018-05-21T01:24:52.139Z,98.60
2018-05-21T01:27:19.997Z,98.40
2018-05-21T01:29:48.138Z,98.40
2018-05-21T01:32:16.218Z,98.30
2018-05-21T01:34:44.057Z,98.20
2018-05-21T01:37:12.102Z,98.30
2018-05-21T01:39:40.337Z,98.20
2018-05-21T01:42:08.298Z,98.00
2018-05-21T01:44:36.257Z,97.90
2018-05-21T01:47:04.156Z,98.00
2018-05-21T01:49:32.060Z,98.10
2018-05-21T01:52:00.336Z,98.00
2018-05-21T01:54:28.116Z,98.10
2018-05-21T01:56:57.156Z,98.60
2018-05-21T01:59:25.116Z,98.60
2018-05-21T02:01:52.956Z,98.70
2018-05-21T02:04:22.097Z,98.70
2018-05-21T02:06:50.016Z,99.00
2018-05-21T02:09:18.055Z,98.50
2018-05-21T02:11:45.875Z,98.60
2018-05-21T02:14:13.736Z,98.70
2018-05-21T02:16:41.615Z,99.20
2018-05-21T02:19:09.615Z,99.00
2018-05-21T02:21:37.436Z,98.80
2018-05-21T02:24:05.375Z,98.60
2018-05-21T02:26:33.679Z,98.70
2018-05-21T02:29:01.455Z,98.50
2018-05-21T02:31:29.236Z,98.50
2018-05-21T02:33:57.015Z,98.70
2018-05-21T02:36:24.955Z,98.40
2018-05-21T02:38:52.795Z,98.30
2018-05-21T02:41:20.695Z,98.30
2018-05-21T02:43:48.575Z,98.50
2018-05-21T02:46:16.455Z,98.60
2018-05-21T02:48:44.296Z,98.70
2018-05-21T02:51:12.114Z,99.00
2018-05-21T02:53:39.994Z,99.30
2018-05-21T02:56:07.836Z,98.30
2018-05-21T02:58:35.735Z,97.90
2018-05-21T03:01:03.676Z,97.40
2018-05-21T03:03:31.555Z,97.50
2018-05-21T03:05:59.335Z,97.70
2018-05-21T03:08:27.157Z,97.60
2018-05-21T03:10:55.256Z,97.40
2018-05-21T03:13:23.097Z,97.60
2018-05-21T03:15:50.856Z,97.70
2018-05-21T03:18:19.036Z,97.70
2018-05-21T03:20:46.955Z,98.00
2018-05-21T03:23:14.795Z,98.00
2018-05-21T03:25:42.676Z,98.10
2018-05-21T03:28:10.455Z,98.50
2018-05-21T03:30:38.416Z,98.70
2018-05-21T03:33:06.235Z,99.00
2018-05-21T03:35:34.297Z,99.30
2018-05-21T03:38:02.137Z,99.60
2018-05-21T03:40:30.017Z,99.90
2018-05-21T03:42:58.615Z,99.90
2018-05-21T03:45:26.496Z,99.90
2018-05-21T03:47:54.296Z,99.90
2018-05-21T03:50:22.215Z,99.90
2018-05-21T03:52:50.096Z,99.90
2018-05-21T03:55:18.024Z,99.90
2018-05-21T03:57:46.175Z,99.90
2018-05-21T04:00:25.675Z,99.90
2018-05-21T04:06:03.116Z,99.90
2018-05-21T04:08:31.015Z,99.90
2018-05-21T04:10:58.836Z,99.90
2018-05-21T04:13:26.656Z,99.90
2018-05-21T04:15:54.458Z,99.90
2018-05-21T04:18:23.016Z,99.90
2018-05-21T04:20:51.096Z,99.90
2018-05-21T04:23:18.936Z,99.90
2018-05-21T04:25:47.156Z,99.90
2018-05-21T04:28:14.956Z,99.70
2018-05-21T04:30:44.358Z,99.40
2018-05-21T04:33:12.240Z,99.30
2018-05-21T04:35:40.676Z,99.30
2018-05-21T04:38:08.636Z,99.10
2018-05-21T04:40:36.420Z,99.10
2018-05-21T04:43:04.237Z,98.80
2018-05-21T04:45:32.036Z,98.70
2018-05-21T04:47:59.876Z,98.70
2018-05-21T04:50:28.876Z,98.60
2018-05-21T04:52:56.857Z,98.70
2018-05-21T04:55:24.676Z,98.60
2018-05-21T04:57:52.855Z,98.60
2018-05-21T05:00:20.594Z,98.50
2018-05-21T05:02:48.506Z,98.40
2018-05-21T05:07:48.318Z,98.50
2018-05-21T05:10:16.657Z,98.10
2018-05-21T05:12:45.098Z,97.70
2018-05-21T05:15:13.618Z,97.60
2018-05-21T05:17:41.538Z,97.60
2018-05-21T05:20:09.822Z,97.00
2018-05-21T05:22:37.658Z,96.70
2018-05-21T05:25:05.578Z,96.40
2018-05-21T05:27:33.318Z,96.40
2018-05-21T05:30:01.138Z,96.00
2018-05-21T05:32:28.998Z,95.40
2018-05-21T05:34:57.237Z,95.70
2018-05-21T05:37:25.026Z,95.90
2018-05-21T05:39:54.676Z,95.70
2018-05-21T05:42:22.575Z,96.00
2018-05-21T05:44:50.592Z,95.80
2018-05-21T05:47:18.334Z,95.50
2018-05-21T05:49:46.174Z,94.50
2018-05-21T05:52:13.975Z,94.50
2018-05-21T05:54:41.874Z,94.70
2018-05-21T05:57:09.714Z,95.00
2018-05-21T05:59:37.613Z,94.80
2018-05-21T06:02:05.540Z,94.90
2018-05-21T06:04:34.200Z,95.10
2018-05-21T06:07:01.958Z,95.10
2018-05-21T06:09:32.059Z,94.70
2018-05-21T06:12:00.001Z,94.70
2018-05-21T06:14:27.878Z,94.60
2018-05-21T06:16:56.302Z,94.50
2018-05-21T06:19:24.178Z,94.10
2018-05-21T06:21:53.478Z,94.50
2018-05-21T06:24:22.119Z,94.20
2018-05-21T06:26:50.018Z,94.20
2018-05-21T06:29:17.918Z,94.00
2018-05-21T06:31:46.458Z,93.90
2018-05-21T06:34:14.425Z,93.70
2018-05-21T06:36:42.178Z,92.00
2018-05-21T06:39:10.039Z,91.80
2018-05-21T06:41:37.838Z,90.90
2018-05-21T06:44:05.779Z,90.10
2018-05-21T06:46:34.418Z,87.60
2018-05-21T06:49:02.599Z,87.60
2018-05-21T06:51:30.774Z,87.70
2018-05-21T06:53:58.835Z,84.10
2018-05-21T06:56:26.774Z,82.60
2018-05-21T06:58:54.634Z,84.00
2018-05-21T07:01:22.979Z,83.00
2018-05-21T07:03:50.901Z,84.30
2018-05-21T07:06:18.997Z,83.00
2018-05-21T07:08:46.835Z,81.60
2018-05-21T07:11:14.995Z,84.30
2018-05-21T07:13:43.055Z,82.50
2018-05-21T07:16:11.075Z,80.60
2018-05-21T07:18:39.260Z,80.40
2018-05-21T07:21:07.238Z,81.80
2018-05-21T07:23:35.255Z,82.80
2018-05-21T07:26:03.136Z,82.30
2018-05-21T07:28:31.054Z,78.70
2018-05-21T07:30:58.977Z,78.00
2018-05-21T07:33:26.814Z,80.50
2018-05-21T07:35:54.734Z,79.70
2018-05-21T07:38:22.954Z,78.90
2018-05-21T07:40:50.894Z,81.50
2018-05-21T07:43:18.655Z,78.80
2018-05-21T07:45:46.654Z,79.00
2018-05-21T07:48:15.054Z,81.20
2018-05-21T07:50:42.915Z,79.40
2018-05-21T07:53:10.794Z,80.00
2018-05-21T07:55:40.383Z,78.00
2018-05-21T07:58:08.395Z,75.60
2018-05-21T08:00:36.335Z,73.60
2018-05-21T08:03:04.414Z,74.00
2018-05-21T08:05:32.217Z,74.20
2018-05-21T08:08:00.158Z,74.60
2018-05-21T08:10:28.062Z,73.00
2018-05-21T08:12:56.017Z,75.40
2018-05-21T08:15:24.357Z,73.50
2018-05-21T08:17:52.298Z,74.30
2018-05-21T08:20:22.955Z,70.50
2018-05-21T08:22:50.977Z,75.30
2018-05-21T08:25:18.898Z,71.10
2018-05-21T08:27:46.822Z,74.50
2018-05-21T08:30:14.775Z,73.30
2018-05-21T08:32:42.735Z,72.60
2018-05-21T08:35:10.655Z,73.80
2018-05-21T08:37:38.412Z,71.90
2018-05-21T08:40:06.496Z,72.60
2018-05-21T08:42:34.504Z,73.30
2018-05-21T08:45:02.980Z,74.30
2018-05-21T08:47:30.902Z,74.40
2018-05-21T08:49:59.154Z,74.90
2018-05-21T08:52:27.121Z,79.20
2018-05-21T08:54:55.095Z,72.90
2018-05-21T08:57:24.255Z,72.30
2018-05-21T08:59:52.096Z,73.90
2018-05-21T09:02:20.254Z,70.40
2018-05-21T09:04:48.188Z,70.40
2018-05-21T09:07:16.500Z,73.10
2018-05-21T09:09:44.315Z,70.50
2018-05-21T09:12:12.276Z,73.40
2018-05-21T09:14:40.495Z,72.60
2018-05-21T09:17:08.581Z,72.20
2018-05-21T09:19:36.860Z,70.80
2018-05-21T09:22:04.760Z,72.00
2018-05-21T09:24:32.739Z,73.00
2018-05-21T09:27:02.572Z,70.50
2018-05-21T09:29:30.459Z,70.40
2018-05-21T09:31:58.719Z,69.20
2018-05-21T09:34:26.581Z,69.40
2018-05-21T09:36:54.500Z,70.30
2018-05-21T09:39:22.418Z,70.70
2018-05-21T09:41:50.358Z,71.60
2018-05-21T09:44:18.424Z,78.20
2018-05-21T09:46:47.056Z,74.00
2018-05-21T09:49:15.082Z,74.00
2018-05-21T09:51:43.019Z,69.20
2018-05-21T09:54:11.040Z,73.30
2018-05-21T09:56:38.898Z,70.50
2018-05-21T09:59:06.739Z,71.50
2018-05-21T10:01:35.295Z,72.80
2018-05-21T10:04:03.156Z,74.00
2018-05-21T10:06:31.294Z,71.40
2018-05-21T10:08:59.195Z,71.10
2018-05-21T10:11:27.075Z,74.50
2018-05-21T10:13:54.994Z,72.30
2018-05-21T10:16:23.075Z,72.20
2018-05-21T10:18:50.762Z,70.70
2018-05-21T10:21:18.473Z,69.50
2018-05-21T10:23:46.187Z,67.60
2018-05-21T10:26:13.889Z,71.90
2018-05-21T10:28:41.611Z,70.50
2018-05-21T10:31:09.459Z,70.90
2018-05-21T10:33:38.938Z,69.50
2018-05-21T10:36:06.883Z,66.00
2018-05-21T10:38:35.097Z,65.10
2018-05-21T10:41:03.578Z,67.80
2018-05-21T10:43:31.537Z,67.90
2018-05-21T10:45:59.478Z,63.70
2018-05-21T10:48:27.297Z,63.60
2018-05-21T10:50:56.456Z,65.50
2018-05-21T10:53:24.377Z,65.50
2018-05-21T10:55:52.537Z,64.20
2018-05-21T10:58:20.517Z,63.70
2018-05-21T11:00:48.420Z,63.80
2018-05-21T11:03:16.156Z,66.50
2018-05-21T11:05:44.096Z,66.10
2018-05-21T11:08:12.432Z,68.30
2018-05-21T11:10:40.577Z,65.40
2018-05-21T11:13:08.504Z,63.10
2018-05-21T11:15:36.223Z,61.50
2018-05-21T11:18:04.176Z,62.60
2018-05-21T11:20:32.096Z,65.10
2018-05-21T11:22:59.996Z,65.40
2018-05-21T11:25:28.357Z,59.90
2018-05-21T11:27:57.295Z,62.00
2018-05-21T11:30:25.076Z,62.50
2018-05-21T11:32:53.717Z,62.50
2018-05-21T11:35:21.796Z,62.90
2018-05-21T11:37:50.045Z,63.20
2018-05-21T11:40:18.735Z,62.90
2018-05-21T11:42:47.537Z,62.80
2018-05-21T11:45:15.539Z,62.00
2018-05-21T11:47:43.519Z,58.80
2018-05-21T11:50:11.501Z,59.50
2018-05-21T11:52:41.076Z,60.00
2018-05-21T11:55:09.036Z,58.00
2018-05-21T11:57:36.855Z,59.70
2018-05-21T12:00:04.755Z,62.40
2018-05-21T12:02:32.716Z,62.10
2018-05-21T12:07:32.507Z,64.20
2018-05-21T12:10:00.900Z,61.20
2018-05-21T12:12:28.758Z,61.90
2018-05-21T12:14:56.579Z,61.60
2018-05-21T12:17:24.530Z,63.90
2018-05-21T12:19:54.182Z,60.40
2018-05-21T12:22:22.300Z,58.70
2018-05-21T12:24:50.779Z,58.40
2018-05-21T12:27:18.599Z,56.00
2018-05-21T12:29:46.540Z,59.30
2018-05-21T12:32:14.799Z,56.70
2018-05-21T12:34:42.737Z,55.20
2018-05-21T12:37:10.579Z,59.30
2018-05-21T12:39:38.499Z,60.60
2018-05-21T12:42:06.819Z,57.20
2018-05-21T12:44:34.918Z,58.10
2018-05-21T12:47:02.839Z,61.50
2018-05-21T12:49:30.781Z,61.80
2018-05-21T12:51:58.819Z,59.40
2018-05-21T12:54:26.798Z,60.90
2018-05-21T12:56:54.722Z,59.80
2018-05-21T12:59:23.058Z,57.90
2018-05-21T13:01:51.139Z,59.00
2018-05-21T13:04:19.239Z,59.50
2018-05-21T13:06:47.042Z,58.30
2018-05-21T13:09:14.999Z,57.20
2018-05-21T13:11:42.999Z,57.10
2018-05-21T13:14:10.879Z,57.90
2018-05-21T13:16:38.779Z,56.30
2018-05-21T13:19:06.658Z,57.10
2018-05-21T13:21:34.719Z,57.50
2018-05-21T13:24:02.865Z,58.00
2018-05-21T13:26:30.740Z,59.40
2018-05-21T13:28:58.659Z,58.50
2018-05-21T13:31:26.375Z,58.40
2018-05-21T13:33:54.334Z,61.40
2018-05-21T13:36:22.596Z,61.10
2018-05-21T13:38:50.435Z,57.50
2018-05-21T13:41:18.634Z,59.20
2018-05-21T13:43:46.514Z,59.90
2018-05-21T13:46:14.558Z,59.10
2018-05-21T13:48:42.519Z,60.20
2018-05-21T13:51:10.403Z,62.50
2018-05-21T13:53:38.463Z,62.00
2018-05-21T13:56:06.354Z,63.40
2018-05-21T13:58:34.339Z,63.80
2018-05-21T14:01:02.419Z,64.10
2018-05-21T14:03:30.244Z,64.20
2018-05-21T14:05:58.219Z,64.60
2018-05-21T14:08:26.199Z,64.50
2018-05-21T14:10:54.099Z,63.30
2018-05-21T14:13:22.000Z,64.30
2018-05-21T14:15:49.880Z,65.90
2018-05-21T14:18:17.819Z,67.10
2018-05-21T14:20:46.446Z,66.70
2018-05-21T14:23:14.460Z,66.70
2018-05-21T14:25:42.838Z,67.40
2018-05-21T14:28:10.765Z,68.20
2018-05-21T14:30:38.844Z,68.50
2018-05-21T14:33:06.930Z,68.20
2018-05-21T14:35:35.787Z,62.80
2018-05-21T14:38:04.697Z,62.70
2018-05-21T14:40:32.658Z,62.80
2018-05-21T14:43:00.598Z,67.30
2018-05-21T14:45:29.621Z,66.80
2018-05-21T14:47:57.661Z,66.80
2018-05-21T14:50:25.561Z,66.10
2018-05-21T14:52:54.241Z,60.50
2018-05-21T14:55:23.035Z,62.70
2018-05-21T14:57:50.935Z,62.70
2018-05-21T15:00:18.660Z,62.10
2018-05-21T15:02:46.919Z,66.10
2018-05-21T15:05:14.699Z,65.60
2018-05-21T15:07:42.580Z,65.30
2018-05-21T15:10:10.480Z,64.60
2018-05-21T15:12:38.322Z,64.30
2018-05-21T15:15:06.120Z,64.00
2018-05-21T15:17:34.000Z,65.40
2018-05-21T15:20:01.822Z,68.50
2018-05-21T15:22:29.840Z,71.20
2018-05-21T15:24:57.781Z,72.80
2018-05-21T15:27:25.516Z,74.60
2018-05-21T15:29:53.476Z,75.70
2018-05-21T15:32:21.476Z,79.00
2018-05-21T15:34:49.796Z,80.20
2018-05-21T15:37:17.696Z,81.20
2018-05-21T15:39:45.556Z,82.60
2018-05-21T15:42:13.423Z,83.50
2018-05-21T15:44:41.503Z,83.00
2018-05-21T15:47:09.460Z,84.00
2018-05-21T15:49:37.295Z,86.60
2018-05-21T15:52:05.320Z,86.80
2018-05-21T15:54:34.147Z,85.80
2018-05-21T15:57:02.101Z,85.60
2018-05-21T15:59:30.126Z,86.50
2018-05-21T16:02:00.058Z,85.90
2018-05-21T16:04:28.200Z,86.30
2018-05-21T16:06:56.536Z,85.90
2018-05-21T16:09:24.537Z,84.90
2018-05-21T16:11:52.456Z,86.80
2018-05-21T16:14:20.396Z,87.00
2018-05-21T16:16:48.535Z,87.00
2018-05-21T16:19:17.658Z,88.00
2018-05-21T16:21:45.616Z,89.10
2018-05-21T16:24:13.456Z,89.70
2018-05-21T16:26:41.395Z,90.20
2018-05-21T16:29:09.695Z,91.10
2018-05-21T16:31:37.596Z,90.50
2018-05-21T16:34:05.658Z,90.40
2018-05-21T16:36:33.757Z,90.10
2018-05-21T16:39:01.676Z,90.20
2018-05-21T16:41:29.705Z,88.80
2018-05-21T16:43:57.616Z,89.20
2018-05-21T16:46:25.896Z,89.00
2018-05-21T16:48:53.898Z,86.60
2018-05-21T16:51:21.917Z,86.90
2018-05-21T16:53:52.631Z,84.30
2018-05-21T16:56:20.678Z,85.00
2018-05-21T16:58:49.378Z,85.80
2018-05-21T17:01:18.157Z,87.10
2018-05-21T17:03:46.116Z,87.10
2018-05-21T17:06:14.057Z,87.30
2018-05-21T17:08:42.016Z,87.10
2018-05-21T17:11:10.317Z,87.90
2018-05-21T17:13:38.776Z,84.80
2018-05-21T17:16:06.596Z,85.00
2018-05-21T17:18:34.676Z,84.20
2018-05-21T17:21:02.577Z,83.60
2018-05-21T17:23:30.516Z,80.60
2018-05-21T17:25:58.361Z,81.60
2018-05-21T17:28:26.218Z,81.10
2018-05-21T17:30:54.018Z,78.40
2018-05-21T17:33:22.006Z,78.20
2018-05-21T17:35:50.210Z,77.30
2018-05-21T17:38:19.578Z,79.30
2018-05-21T17:40:47.451Z,76.70
2018-05-21T17:43:15.659Z,77.10
2018-05-21T17:45:43.701Z,77.20
2018-05-21T17:48:11.738Z,76.50
2018-05-21T17:50:39.721Z,79.10
2018-05-21T17:53:07.918Z,78.80
2018-05-21T17:55:35.901Z,78.40
2018-05-21T17:58:03.784Z,79.80
2018-05-21T18:00:31.702Z,79.20
2018-05-21T18:02:59.637Z,79.70
2018-05-21T18:05:28.103Z,80.50
2018-05-21T18:07:56.633Z,80.80
2018-05-21T18:10:24.459Z,80.70
2018-05-21T18:12:52.440Z,81.40
2018-05-21T18:15:20.502Z,82.50
2018-05-21T18:17:48.700Z,84.40
2018-05-21T18:20:17.119Z,84.70
2018-05-21T18:22:45.081Z,85.30
2018-05-21T18:25:12.939Z,86.10
2018-05-21T18:27:41.079Z,86.90
2018-05-21T18:30:09.083Z,85.60
2018-05-21T18:32:37.513Z,87.50
2018-05-21T18:35:05.243Z,87.70
2018-05-21T18:37:33.337Z,88.00
2018-05-21T18:40:01.278Z,88.00
2018-05-21T18:42:29.412Z,87.70
2018-05-21T18:44:57.323Z,86.80
2018-05-21T18:47:25.730Z,86.70
2018-05-21T18:49:53.597Z,87.00
2018-05-21T18:52:21.577Z,85.60
2018-05-21T18:54:49.479Z,85.70
2018-05-21T18:57:17.659Z,85.90
2018-05-21T18:59:47.115Z,86.70
2018-05-21T19:02:14.981Z,86.50
2018-05-21T19:04:43.659Z,86.90
2018-05-21T19:07:11.443Z,86.80
2018-05-21T19:09:39.238Z,86.80
2018-05-21T19:12:07.118Z,86.70
2018-05-21T19:14:34.961Z,86.80
2018-05-21T19:17:02.857Z,86.80
2018-05-21T19:19:30.740Z,88.60
2018-05-21T19:21:58.515Z,88.70
2018-05-21T19:24:27.097Z,90.10
2018-05-21T19:26:55.124Z,90.10
2018-05-21T19:29:23.943Z,91.00
2018-05-21T19:31:51.702Z,91.00
2018-05-21T19:34:21.361Z,91.60
2018-05-21T19:36:50.061Z,91.20
2018-05-21T19:39:18.040Z,91.20
2018-05-21T19:41:45.862Z,91.10
2018-05-21T19:44:13.720Z,90.90
2018-05-21T19:46:42.332Z,90.00
2018-05-21T19:49:10.288Z,90.00
2018-05-21T19:51:38.226Z,90.30
2018-05-21T19:54:06.057Z,89.70
2018-05-21T19:56:33.972Z,88.30
2018-05-21T19:59:01.717Z,88.10
2018-05-21T20:01:29.601Z,89.00
2018-05-21T20:03:57.436Z,88.50
2018-05-21T20:06:25.296Z,89.40
2018-05-21T20:08:53.136Z,90.40
2018-05-21T20:11:21.037Z,90.50
2018-05-21T20:13:49.660Z,88.90
2018-05-21T20:16:17.615Z,88.80
2018-05-21T20:18:45.415Z,88.80
2018-05-21T20:21:13.319Z,88.90
2018-05-21T20:23:41.181Z,90.30
2018-05-21T20:26:08.919Z,90.50
2018-05-21T20:28:36.775Z,85.40
2018-05-21T20:31:05.280Z,90.50
2018-05-21T20:33:33.045Z,90.50
2018-05-21T20:36:00.856Z,91.40
2018-05-21T20:38:28.568Z,91.20
2018-05-21T20:40:56.379Z,91.80
2018-05-21T20:43:24.317Z,89.60
2018-05-21T20:45:52.101Z,80.90
2018-05-21T20:48:19.797Z,90.30
2018-05-21T20:50:49.316Z,92.20
2018-05-21T20:53:17.034Z,90.40
2018-05-21T20:55:44.723Z,90.80
2018-05-21T20:58:12.435Z,92.50
2018-05-21T21:00:40.116Z,93.60
2018-05-21T21:03:07.759Z,93.50
2018-05-21T21:05:36.254Z,90.30
2018-05-21T21:08:03.944Z,90.30
2018-05-21T21:10:31.602Z,91.50
2018-05-21T21:12:59.303Z,92.20
2018-05-21T21:15:26.970Z,88.50
2018-05-21T21:17:54.681Z,92.50
2018-05-21T21:20:22.408Z,93.70
2018-05-21T21:22:50.066Z,93.50
2018-05-21T21:25:17.764Z,90.90
2018-05-21T21:27:46.223Z,92.10
2018-05-21T21:30:13.956Z,92.10
2018-05-21T21:32:41.728Z,94.00
2018-05-21T21:35:09.386Z,93.60
2018-05-21T21:37:37.159Z,93.50
2018-05-21T21:40:04.852Z,93.40
2018-05-21T21:42:32.602Z,93.20
2018-05-21T21:45:00.360Z,93.00
2018-05-21T21:47:28.085Z,92.80
2018-05-21T21:49:55.841Z,92.70
2018-05-21T21:52:23.598Z,92.80
2018-05-21T21:54:51.345Z,92.60
2018-05-21T21:57:19.878Z,92.20
2018-05-21T21:59:47.657Z,92.20
2018-05-21T22:02:15.478Z,92.20
2018-05-21T22:04:43.218Z,92.30
2018-05-21T22:07:10.957Z,92.00
2018-05-21T22:09:38.689Z,92.00
2018-05-21T22:12:06.453Z,91.80
2018-05-21T22:14:34.173Z,92.00
2018-05-21T22:17:01.895Z,92.20
2018-05-21T22:19:29.743Z,92.10
2018-05-21T22:21:57.892Z,92.10
2018-05-21T22:24:25.698Z,92.60
2018-05-21T22:26:53.417Z,92.40
2018-05-21T22:29:21.157Z,92.20
2018-05-21T22:31:48.871Z,92.20
2018-05-21T22:34:16.613Z,92.40
2018-05-21T22:36:44.377Z,93.10
2018-05-21T22:39:12.133Z,93.10
2018-05-21T22:41:39.975Z,93.20
2018-05-21T22:44:08.515Z,92.90
2018-05-21T22:46:36.242Z,92.90
2018-05-21T22:49:03.926Z,92.90
2018-05-21T22:51:32.210Z,92.90
2018-05-21T22:53:59.948Z,92.40
2018-05-21T22:58:59.483Z,92.30
2018-05-21T23:01:27.221Z,92.20
2018-05-21T23:06:26.882Z,92.50
2018-05-21T23:08:54.638Z,92.90
2018-05-21T23:11:22.479Z,92.90
2018-05-21T23:13:50.237Z,92.80
2018-05-21T23:16:17.973Z,92.90
2018-05-21T23:18:45.767Z,93.00
2018-05-21T23:21:13.838Z,93.10
2018-05-21T23:23:41.549Z,92.80
2018-05-21T23:26:09.273Z,92.70
2018-05-21T23:28:37.217Z,92.50
2018-05-21T23:31:05.280Z,92.40
2018-05-21T23:33:33.135Z,92.10
2018-05-21T23:36:01.335Z,92.00
2018-05-21T23:38:29.295Z,92.00
2018-05-21T23:40:58.137Z,92.00
2018-05-21T23:43:26.195Z,92.00
2018-05-21T23:45:54.135Z,92.10
2018-05-21T23:48:21.975Z,92.00
2018-05-21T23:50:49.881Z,91.90
2018-05-21T23:53:18.575Z,93.10
2018-05-21T23:55:46.455Z,93.00
2018-05-21T23:58:15.795Z,92.70
